Time;durP1;ratioP1;P1;durP2;ratioP2;P2;SDS_P1;SDS_P2;PMS_P1;PMS_P2;Temp;Humidity;BMP_temperature;BMP_pressure;BME280_temperature;BME280_humidity;BME280_pressure;Samples;Min_cycle;Max_cycle;Signal;HPM_P1;HPM_P2
2021/06/27 00:01:16;;;;;;;5.78;2.83;;;;;;;23.59;74.11;100655.36;1658469;86;21333;-69
2021/06/27 00:03:49;;;;;;;7.75;3.70;;;;;;;23.57;74.42;100657.69;1658617;86;21376;-68
2021/06/27 00:06:22;;;;;;;8.68;3.60;;;;;;;23.57;74.71;100664.20;1658624;85;21262;-69
2021/06/27 00:08:55;;;;;;;8.55;3.47;;;;;;;23.61;75.70;100674.26;1658602;86;21242;-70
2021/06/27 00:11:29;;;;;;;6.55;2.87;;;;;;;23.67;76.95;100677.97;1658510;86;21234;-68
2021/06/27 00:14:02;;;;;;;15.30;3.77;;;;;;;23.71;77.71;100696.53;1658531;84;21270;-68
2021/06/27 00:16:35;;;;;;;9.63;4.53;;;;;;;23.77;78.45;100704.47;1658767;85;21862;-69
2021/06/27 00:19:08;;;;;;;8.73;3.27;;;;;;;23.80;78.94;100715.70;1658473;85;21257;-66
2021/06/27 00:21:40;;;;;;;9.53;2.80;;;;;;;23.83;79.57;100728.60;1658752;85;21191;-68
2021/06/27 00:24:15;;;;;;;9.78;3.80;;;;;;;23.83;79.57;100728.60;1658479;86;21226;-67
2021/06/27 00:26:47;;;;;;;12.80;4.00;;;;;;;23.93;79.67;100733.05;1658686;85;21241;-67
2021/06/27 00:29:20;;;;;;;7.08;4.05;;;;;;;23.99;79.74;100739.59;1658605;85;21210;-68
2021/06/27 00:31:52;;;;;;;6.78;3.35;;;;;;;24.05;79.74;100734.52;1658457;86;21202;-69
2021/06/27 00:34:25;;;;;;;10.75;3.80;;;;;;;24.05;79.70;100745.87;1658729;86;21258;-68
2021/06/27 00:36:58;;;;;;;11.63;3.42;;;;;;;24.06;79.83;100748.94;1658681;86;21336;-69
2021/06/27 00:39:31;;;;;;;6.22;3.60;;;;;;;24.06;79.94;100744.69;1658719;86;21344;-69
2021/06/27 00:42:05;;;;;;;9.63;3.67;;;;;;;24.07;79.36;100744.95;1658608;86;21293;-69
2021/06/27 00:44:38;;;;;;;8.15;3.52;;;;;;;24.05;79.05;100756.64;1658656;86;21457;-67
2021/06/27 00:47:11;;;;;;;9.95;3.33;;;;;;;24.02;78.03;100764.42;1658813;86;21846;-69
2021/06/27 00:49:44;;;;;;;6.70;4.00;;;;;;;24.01;78.36;100774.12;1658877;86;21413;-67
2021/06/27 00:52:16;;;;;;;11.40;3.67;;;;;;;24.03;78.91;100790.81;1659015;86;21363;-68
2021/06/27 00:54:49;;;;;;;11.97;4.17;;;;;;;24.02;79.16;100804.77;1658775;86;21506;-67
2021/06/27 00:57:21;;;;;;;7.00;3.87;;;;;;;24.00;79.51;100804.26;1663018;86;21408;-68
2021/06/27 00:59:54;;;;;;;5.53;3.03;;;;;;;23.94;79.95;100816.99;1672998;86;21259;-68
2021/06/27 01:02:26;;;;;;;12.75;3.58;;;;;;;23.90;80.33;100816.05;1672790;86;21210;-68
2021/06/27 01:04:59;;;;;;;8.63;3.83;;;;;;;23.88;80.39;100814.97;1673018;84;21253;-68
2021/06/27 01:07:32;;;;;;;8.45;3.60;;;;;;;23.94;80.24;100824.09;1672853;86;21209;-68
2021/06/27 01:10:06;;;;;;;10.18;4.05;;;;;;;23.97;80.25;100824.83;1672862;84;21205;-69
2021/06/27 01:12:39;;;;;;;8.80;3.52;;;;;;;24.01;79.88;100821.55;1672825;84;21241;-68
2021/06/27 01:15:12;;;;;;;;;;;;;;;23.99;79.93;100823.88;1675258;86;21245;-69
2021/06/27 01:17:47;;;;;;;11.55;3.70;;;;;;;23.96;80.06;100828.24;1672745;86;20246;-69
2021/06/27 01:20:27;;;;;;;8.10;4.40;;;;;;;23.93;80.26;100833.78;1672791;86;21220;-69
2021/06/27 01:23:02;;;;;;;12.55;4.47;;;;;;;23.91;80.52;100837.56;1672224;85;21248;-69
2021/06/27 01:25:38;;;;;;;12.63;3.87;;;;;;;23.93;80.71;100837.47;1672714;86;21264;-69
2021/06/27 01:28:12;;;;;;;13.13;3.90;;;;;;;23.95;80.76;100836.52;1672782;86;21209;-69
2021/06/27 01:30:44;;;;;;;11.33;4.10;;;;;;;23.97;80.83;100846.95;1672731;84;21249;-70
2021/06/27 01:33:24;;;;;;;11.80;4.60;;;;;;;23.98;80.71;100853.45;1673037;82;21238;-70
2021/06/27 01:35:56;;;;;;;15.65;4.58;;;;;;;23.92;79.62;100855.67;1758086;81;21207;-69
2021/06/27 01:38:31;;;;;;;13.00;5.00;;;;;;;23.80;79.76;100856.13;1758365;81;21132;-70
2021/06/27 01:41:03;;;;;;;9.90;4.42;;;;;;;23.80;79.76;100856.13;1758230;81;21580;-70
2021/06/27 01:43:36;;;;;;;9.78;4.25;;;;;;;23.76;79.72;100855.15;1758336;81;21686;-69
2021/06/27 01:46:09;;;;;;;14.75;4.25;;;;;;;23.73;80.19;100862.95;1758299;81;21155;-69
2021/06/27 01:48:42;;;;;;;8.63;4.55;;;;;;;23.72;80.55;100847.92;1758342;81;21140;-68
2021/06/27 01:51:15;;;;;;;13.90;5.12;;;;;;;23.75;80.93;100846.41;1758250;81;21200;-68
2021/06/27 01:53:48;;;;;;;15.60;5.10;;;;;;;23.79;80.71;100854.48;1758713;81;21334;-68
2021/06/27 01:56:20;;;;;;;12.57;4.80;;;;;;;23.79;80.70;100860.16;1758545;81;21288;-69
2021/06/27 01:58:53;;;;;;;8.45;4.20;;;;;;;23.78;81.06;100862.14;1758549;81;21749;-69
2021/06/27 02:01:31;;;;;;;10.43;5.03;;;;;;;23.83;81.28;100872.48;1758261;81;21811;-69
2021/06/27 02:04:08;;;;;;;18.05;5.20;;;;;;;23.92;81.46;100870.44;1758229;81;21214;-68
2021/06/27 02:06:43;;;;;;;14.43;4.62;;;;;;;23.92;81.57;100865.60;1758272;81;21686;-69
2021/06/27 02:09:16;;;;;;;8.48;4.62;;;;;;;23.92;81.03;100867.02;1758220;81;21169;-70
2021/06/27 02:11:49;;;;;;;6.60;4.33;;;;;;;23.91;80.68;100868.78;1758067;81;21148;-68
2021/06/27 02:14:22;;;;;;;13.05;4.60;;;;;;;23.88;80.62;100873.70;1758450;81;21223;-69
2021/06/27 02:16:55;;;;;;;16.60;5.08;;;;;;;23.88;80.80;100868.03;1758069;81;21200;-69
2021/06/27 02:19:29;;;;;;;14.45;5.40;;;;;;;23.87;80.64;100874.86;1757956;81;21192;-69
2021/06/27 02:22:01;;;;;;;26.70;4.93;;;;;;;23.86;80.36;100888.23;1758235;81;21156;-70
2021/06/27 02:24:34;;;;;;;14.45;4.75;;;;;;;23.80;80.33;100895.85;1757976;81;21165;-70
2021/06/27 02:27:08;;;;;;;14.05;4.30;;;;;;;23.75;80.13;100898.88;1758665;81;21298;-68
2021/06/27 02:29:40;;;;;;;11.73;4.75;;;;;;;23.75;80.37;100901.14;1758539;81;21159;-68
2021/06/27 02:32:13;;;;;;;9.03;4.50;;;;;;;23.73;80.12;100899.82;1758340;81;21307;-68
2021/06/27 02:34:46;;;;;;;10.82;4.25;;;;;;;23.68;80.26;100898.02;1693567;80;21187;-68
2021/06/27 02:37:19;;;;;;;10.75;4.50;;;;;;;23.61;80.40;100901.14;1671552;86;21395;-70
2021/06/27 02:39:52;;;;;;;13.98;4.72;;;;;;;23.58;80.55;100901.84;1671532;86;21340;-69
2021/06/27 02:42:25;;;;;;;8.63;4.72;;;;;;;23.60;80.52;100910.23;1671357;86;21241;-69
2021/06/27 02:44:57;;;;;;;18.05;4.83;;;;;;;23.57;80.29;100916.59;1671295;86;21241;-69
2021/06/27 02:47:30;;;;;;;12.73;4.40;;;;;;;23.55;80.20;100928.03;1671445;86;21159;-69
2021/06/27 02:50:04;;;;;;;11.30;4.20;;;;;;;23.50;79.81;100932.47;1671446;86;21241;-69
2021/06/27 02:52:37;;;;;;;8.38;3.87;;;;;;;23.39;78.59;100936.85;1671384;86;21293;-68
2021/06/27 02:55:12;;;;;;;9.75;3.80;;;;;;;23.27;77.22;100930.48;1671440;86;21800;-70
2021/06/27 02:57:44;;;;;;;;;;;;;;;23.17;76.66;100928.02;1673776;86;21230;-69
2021/06/27 03:00:19;;;;;;;10.13;3.52;;;;;;;23.11;76.71;100921.44;1671545;86;20541;-72
2021/06/27 03:02:51;;;;;;;8.30;4.87;;;;;;;23.04;76.56;100923.96;1697900;84;21289;-70
2021/06/27 03:05:24;;;;;;;7.53;3.57;;;;;;;23.00;76.52;100915.31;1698029;84;21257;-70
2021/06/27 03:07:56;;;;;;;12.20;4.23;;;;;;;22.96;76.40;100912.89;1699851;80;21332;-68
2021/06/27 03:10:29;;;;;;;10.18;3.37;;;;;;;22.94;76.70;100932.81;1699761;84;21786;-67
2021/06/27 03:13:02;;;;;;;;;;;;;;;22.91;76.61;100927.84;1701855;84;21244;-68
2021/06/27 03:15:35;;;;;;;10.15;3.95;;;;;;;22.92;77.06;100935.97;1699282;84;20186;-69
2021/06/27 03:18:07;;;;;;;15.98;3.87;;;;;;;22.93;77.49;100939.05;1699500;84;21402;-68
2021/06/27 03:20:41;;;;;;;5.63;3.23;;;;;;;22.95;77.56;100937.30;1699589;83;21204;-69
2021/06/27 03:23:14;;;;;;;12.13;4.05;;;;;;;22.96;77.41;100931.87;1699442;84;21864;-69
2021/06/27 03:25:46;;;;;;;;;;;;;;;22.95;77.08;100937.30;1674951;84;21240;-69
2021/06/27 03:28:20;;;;;;;13.85;3.92;;;;;;;22.95;76.89;100935.31;1699347;84;20181;-69
2021/06/27 03:30:52;;;;;;;8.58;3.62;;;;;;;22.97;76.72;100944.30;1699380;83;21335;-69
2021/06/27 03:33:25;;;;;;;8.57;4.30;;;;;;;22.97;76.56;100937.22;1699612;83;21853;-68
2021/06/27 03:35:58;;;;;;;11.40;3.47;;;;;;;22.99;76.34;100932.64;1699560;83;21201;-69
2021/06/27 03:41:10;;;;;;;9.90;3.80;;;;;;;23.05;76.16;100927.85;1787175;80;21580;-69
2021/06/27 03:43:44;;;;;;;12.18;4.03;;;;;;;23.04;75.97;100930.45;1786949;80;21174;-69
2021/06/27 03:46:16;;;;;;;7.75;4.60;;;;;;;23.05;75.94;100929.88;1787315;80;21173;-71
2021/06/27 03:48:49;;;;;;;8.20;3.62;;;;;;;23.03;75.67;100937.89;1787274;80;21809;-70
2021/06/27 03:51:22;;;;;;;12.82;3.62;;;;;;;23.00;75.60;100932.88;1787245;80;21252;-70
2021/06/27 03:53:55;;;;;;;13.55;4.20;;;;;;;22.98;75.83;100931.79;1787221;80;21255;-70
2021/06/27 03:56:27;;;;;;;15.32;4.30;;;;;;;22.98;75.83;100933.81;1787087;80;21857;-69
2021/06/27 03:59:00;;;;;;;11.93;4.08;;;;;;;22.99;75.99;100917.05;1787264;80;21181;-70
2021/06/27 04:01:33;;;;;;;11.15;4.17;;;;;;;22.99;75.97;100931.22;1787409;80;21517;-69
2021/06/27 04:04:05;;;;;;;18.25;4.85;;;;;;;23.01;76.33;100924.63;1787243;80;21184;-70
2021/06/27 04:06:38;;;;;;;;;;;;;;;23.09;76.48;100928.00;1789753;80;21193;-69
2021/06/27 04:09:10;;;;;;;14.10;4.25;;;;;;;23.15;76.43;100926.66;1787121;80;20178;-70
2021/06/27 04:11:42;;;;;;;6.77;3.33;;;;;;;23.21;76.54;100931.84;1787447;80;21702;-69
2021/06/27 04:14:29;;;;;;;10.68;4.10;;;;;;;23.26;76.69;100926.00;1758475;80;21187;-71
2021/06/27 04:17:02;;;;;;;;;;;;;;;23.40;76.58;100924.36;1761045;81;21164;-69
2021/06/27 04:19:34;;;;;;;12.73;5.03;;;;;;;23.52;76.07;100930.15;1728480;83;20244;-70
2021/06/27 04:22:07;;;;;;;12.87;5.00;;;;;;;23.69;76.14;100928.62;1758705;81;21204;-69
2021/06/27 04:24:40;;;;;;;13.78;4.83;;;;;;;23.92;75.60;100935.13;1758702;81;21299;-70
2021/06/27 04:45:02;;;;;;;13.35;4.58;;;;;;;23.89;73.93;100920.19;1862565;76;22185;-69
2021/06/27 04:47:36;;;;;;;8.90;4.37;;;;;;;23.83;74.19;100922.13;1753028;82;21395;-72
2021/06/27 04:50:10;;;;;;;10.45;4.42;;;;;;;23.87;74.15;100915.45;1769278;81;21159;-70
2021/06/27 04:52:43;;;;;;;8.10;4.67;;;;;;;23.92;74.62;100912.42;1752950;82;21327;-71
2021/06/27 04:55:15;;;;;;;10.97;5.10;;;;;;;23.96;74.73;100923.91;1769547;81;21172;-69
2021/06/27 04:57:48;;;;;;;9.08;4.58;;;;;;;23.97;74.27;100921.31;1753129;82;21315;-70
2021/06/27 05:00:22;;;;;;;13.48;5.50;;;;;;;24.02;74.27;100909.77;1712419;81;21337;-70
2021/06/27 05:02:55;;;;;;;13.90;7.75;;;;;;;24.10;73.96;100911.13;1754535;82;21194;-69
2021/06/27 05:05:27;;;;;;;7.70;4.93;;;;;;;24.21;74.06;100912.95;1784449;79;21312;-69
2021/06/27 05:08:00;;;;;;;11.07;4.70;;;;;;;24.37;73.63;100909.72;1763933;80;21304;-72
2021/06/27 05:10:32;;;;;;;13.95;4.83;;;;;;;24.49;73.51;100903.52;1738879;82;22037;-70
2021/06/27 05:13:05;;;;;;;12.88;4.70;;;;;;;24.63;72.58;100914.02;1752897;80;21213;-70
2021/06/27 05:15:38;;;;;;;11.83;4.97;;;;;;;24.73;72.35;100911.33;1739002;82;21217;-69
2021/06/27 05:18:11;;;;;;;13.88;4.70;;;;;;;24.88;71.46;100909.27;1768823;78;21324;-73
2021/06/27 05:20:44;;;;;;;13.40;4.87;;;;;;;25.29;72.75;100916.27;1759500;81;21693;-71
2021/06/27 05:23:17;;;;;;;8.63;4.33;;;;;;;25.92;71.96;100905.63;1801653;79;21220;-70
2021/06/27 05:25:50;;;;;;;7.75;3.65;;;;;;;26.55;69.09;100914.17;1801783;79;21669;-71
2021/06/27 05:28:22;;;;;;;9.70;4.53;;;;;;;27.20;67.78;100914.22;1801589;79;21312;-71
2021/06/27 05:30:55;;;;;;;6.10;3.87;;;;;;;27.78;65.30;100910.72;1801667;79;21179;-71
2021/06/27 05:33:28;;;;;;;8.73;3.75;;;;;;;28.33;61.50;100914.67;1801776;79;21712;-72
2021/06/27 05:36:00;;;;;;;8.33;3.95;;;;;;;28.79;61.19;100914.27;1801605;79;21711;-74
2021/06/27 05:38:34;;;;;;;14.33;4.33;;;;;;;29.27;60.30;100914.44;1801545;79;21162;-75
2021/06/27 05:41:06;;;;;;;9.50;4.33;;;;;;;29.71;57.63;100923.44;1800217;79;21306;-73
2021/06/27 05:43:40;;;;;;;9.73;4.10;;;;;;;30.15;56.78;100915.37;1801438;79;21359;-70
2021/06/27 05:46:13;;;;;;;9.25;4.30;;;;;;;30.55;54.48;100916.98;1801601;79;21170;-71
2021/06/27 05:48:46;;;;;;;9.58;4.30;;;;;;;30.82;55.38;100916.34;1801535;79;21760;-66
2021/06/27 05:51:19;;;;;;;6.85;3.58;;;;;;;31.05;53.91;100918.47;1822981;78;21301;-76
2021/06/27 05:53:53;;;;;;;14.58;3.80;;;;;;;31.29;53.13;100901.52;1743454;82;21186;-69
2021/06/27 05:56:26;;;;;;;7.53;3.52;;;;;;;31.59;53.09;100899.34;1763674;81;21178;-71
2021/06/27 05:58:59;;;;;;;8.73;3.27;;;;;;;31.88;50.83;100897.55;1828676;78;21313;-75
2021/06/27 06:01:31;;;;;;;11.73;2.95;;;;;;;32.07;50.68;100889.48;1743097;82;21361;-72
2021/06/27 06:04:04;;;;;;;6.97;3.00;;;;;;;32.26;51.14;100892.11;1775056;81;21179;-67
2021/06/27 06:06:38;;;;;;;6.15;2.98;;;;;;;32.40;48.54;100888.48;1742866;82;21871;-76
2021/06/27 06:09:11;;;;;;;8.68;3.12;;;;;;;32.53;47.26;100887.75;1775095;81;21365;-70
2021/06/27 06:11:45;;;;;;;10.32;3.40;;;;;;;32.64;47.36;100888.59;1743162;82;21313;-70
2021/06/27 06:14:18;;;;;;;10.35;3.40;;;;;;;32.79;47.35;100890.34;1775053;81;21835;-69
2021/06/27 06:16:51;;;;;;;11.25;3.37;;;;;;;32.93;45.69;100887.50;1743027;82;21395;-70
2021/06/27 06:19:24;;;;;;;4.85;3.20;;;;;;;32.93;46.60;100899.02;1774981;80;21878;-74
2021/06/27 06:21:57;;;;;;;12.68;3.45;;;;;;;32.88;46.86;100889.97;1742883;82;21214;-73
2021/06/27 06:24:30;;;;;;;12.30;4.37;;;;;;;32.85;45.86;100888.72;1775046;81;21364;-72
2021/06/27 06:27:02;;;;;;;8.98;3.90;;;;;;;32.83;45.15;100896.92;1742958;82;21321;-70
2021/06/27 06:29:35;;;;;;;7.25;3.25;;;;;;;32.87;46.70;100900.65;1775168;81;21333;-72
2021/06/27 06:32:08;;;;;;;7.53;3.98;;;;;;;33.06;46.96;100905.24;1742978;82;21827;-73
2021/06/27 06:34:41;;;;;;;9.43;3.75;;;;;;;33.22;45.66;100902.19;1775045;81;21234;-72
2021/06/27 06:37:14;;;;;;;14.95;4.45;;;;;;;33.34;45.57;100906.16;1742996;82;21183;-72
2021/06/27 06:39:47;;;;;;;5.37;3.70;;;;;;;33.40;45.33;100905.13;1774986;81;21191;-70
2021/06/27 06:42:21;;;;;;;7.15;3.92;;;;;;;33.39;44.68;100905.77;1742911;82;21724;-78
2021/06/27 06:44:53;;;;;;;7.05;3.40;;;;;;;33.28;44.66;100903.47;1742970;82;21259;-73
2021/06/27 06:47:27;;;;;;;6.92;3.08;;;;;;;33.27;45.14;100898.11;1775151;81;21315;-70
2021/06/27 06:49:59;;;;;;;;;;;;;;;33.35;45.95;100899.77;1745474;82;21318;-76
2021/06/27 06:52:31;;;;;;;5.35;3.10;;;;;;;33.40;46.94;100895.04;1759571;81;20295;-72
2021/06/27 06:55:04;;;;;;;7.85;3.02;;;;;;;33.49;46.74;100896.92;1781210;79;21396;-73
2021/06/27 06:57:36;;;;;;;11.90;3.90;;;;;;;33.56;44.38;100894.03;1781364;79;21709;-75
2021/06/27 07:00:13;;;;;;;4.87;2.62;;;;;;;33.57;44.35;100886.43;1781795;79;21199;-73
2021/06/27 07:02:45;;;;;;;13.78;3.37;;;;;;;33.64;45.54;100892.80;1780909;79;21734;-72
2021/06/27 07:05:19;;;;;;;4.55;2.60;;;;;;;33.85;44.88;100889.32;1781884;79;21175;-73
2021/06/27 07:07:51;;;;;;;4.03;2.65;;;;;;;33.97;42.57;100891.78;1776559;80;21368;-73
2021/06/27 07:10:24;;;;;;;4.12;2.67;;;;;;;34.00;43.11;100896.73;1786793;79;21393;-74
2021/06/27 07:12:56;;;;;;;8.03;3.50;;;;;;;34.02;42.93;100890.53;1773261;80;21317;-72
2021/06/27 07:15:29;;;;;;;5.87;3.27;;;;;;;33.95;41.63;100888.50;1768227;81;21711;-76
2021/06/27 07:18:02;;;;;;;6.87;2.90;;;;;;;33.88;42.35;100887.67;1768292;81;21348;-71
2021/06/27 07:20:35;;;;;;;3.05;2.75;;;;;;;33.91;43.21;100897.76;1768337;80;21280;-74
2021/06/27 07:23:10;;;;;;;8.18;2.85;;;;;;;33.88;42.67;100901.48;1768003;80;21336;-75
2021/06/27 07:25:43;;;;;;;4.35;2.80;;;;;;;33.93;43.51;100899.60;1768003;81;21175;-74
2021/06/27 07:28:15;;;;;;;11.73;2.70;;;;;;;34.01;43.39;100899.81;1768090;81;21249;-73
2021/06/27 07:30:47;;;;;;;6.97;3.27;;;;;;;34.05;43.32;100902.06;1768427;81;21368;-73
2021/06/27 07:33:20;;;;;;;9.98;3.05;;;;;;;34.14;42.86;100898.14;1774921;79;21210;-71
2021/06/27 07:35:54;;;;;;;6.95;2.33;;;;;;;34.16;43.95;100903.52;1785687;79;21320;-72
2021/06/27 07:38:29;;;;;;;10.38;3.92;;;;;;;34.19;45.51;100907.83;1773547;79;21700;-71
2021/06/27 07:41:01;;;;;;;10.28;3.70;;;;;;;34.27;44.06;100905.16;1794469;79;21202;-73
2021/06/27 07:43:37;;;;;;;9.85;3.47;;;;;;;34.27;43.90;100911.53;1787354;79;21219;-72
2021/06/27 07:46:12;;;;;;;6.35;3.02;;;;;;;34.15;43.86;100900.42;1783960;79;21783;-73
2021/06/27 07:48:47;;;;;;;5.12;3.08;;;;;;;34.13;43.97;100903.72;1776528;79;21733;-73
2021/06/27 07:51:20;;;;;;;9.15;3.20;;;;;;;34.10;42.92;100914.63;1776163;79;21191;-73
2021/06/27 07:53:53;;;;;;;8.10;3.08;;;;;;;34.01;43.75;100914.24;1785888;79;21304;-72
2021/06/27 07:56:29;;;;;;;7.22;3.33;;;;;;;33.93;42.96;100914.02;1786659;79;21163;-72
2021/06/27 07:59:04;;;;;;;5.62;2.92;;;;;;;33.74;44.40;100911.52;1774287;79;21353;-74
2021/06/27 08:01:36;;;;;;;9.78;3.40;;;;;;;33.62;44.19;100909.69;1776434;79;21262;-73
2021/06/27 08:04:12;;;;;;;8.25;3.60;;;;;;;33.33;46.05;100913.77;1779391;79;21392;-74
2021/06/27 08:06:45;;;;;;;11.85;3.80;;;;;;;33.08;47.92;100915.73;1794514;79;21709;-73
2021/06/27 08:09:20;;;;;;;7.78;3.35;;;;;;;32.88;47.21;100917.31;1780759;79;21360;-72
2021/06/27 08:11:55;;;;;;;5.45;3.80;;;;;;;32.73;47.25;100923.59;1775598;80;21163;-81
2021/06/27 08:14:27;;;;;;;11.03;3.65;;;;;;;32.57;48.05;100920.22;1781611;79;21285;-75
2021/06/27 08:17:01;;;;;;;11.53;3.67;;;;;;;32.35;46.88;100910.45;1788324;79;21186;-76
2021/06/27 08:19:35;;;;;;;8.50;3.42;;;;;;;32.08;46.65;100916.20;1782451;79;21314;-72
2021/06/27 08:22:08;;;;;;;6.80;3.92;;;;;;;31.84;48.30;100911.90;1785895;79;21213;-71
2021/06/27 08:24:40;;;;;;;12.82;3.67;;;;;;;31.68;49.33;100909.91;1794147;79;21303;-72
2021/06/27 08:27:12;;;;;;;12.30;4.42;;;;;;;31.61;49.45;100914.13;1779519;79;21230;-73
2021/06/27 08:29:45;;;;;;;;;;;;;;;31.55;49.28;100910.59;1790887;79;21349;-71
2021/06/27 08:32:19;;;;;;;10.82;3.60;;;;;;;31.51;47.79;100916.91;1785362;79;20245;-77
2021/06/27 08:34:53;;;;;;;8.90;3.37;;;;;;;31.36;48.10;100917.38;1772844;79;21182;-75
2021/06/27 08:37:27;;;;;;;8.05;3.58;;;;;;;31.25;47.14;100912.16;1735494;82;21858;-77
2021/06/27 08:40:00;;;;;;;10.50;3.70;;;;;;;31.10;47.20;100909.47;1784729;79;21222;-75
2021/06/27 08:42:32;;;;;;;5.70;2.85;;;;;;;30.89;47.68;100911.52;1733771;82;21387;-78
2021/06/27 08:45:07;;;;;;;11.53;2.70;;;;;;;30.70;48.20;100918.87;1726899;82;21325;-72
2021/06/27 08:47:41;;;;;;;9.68;3.20;;;;;;;30.53;49.46;100910.81;1726173;82;21178;-79
2021/06/27 08:50:15;;;;;;;4.85;3.45;;;;;;;30.49;49.85;100920.56;1748986;82;21882;-77
2021/06/27 08:52:48;;;;;;;6.72;3.45;;;;;;;30.52;50.44;100926.38;1733257;83;21198;-80
2021/06/27 08:55:21;;;;;;;16.25;3.25;;;;;;;30.55;50.33;100915.55;1801665;79;21147;-80
2021/06/27 08:57:53;;;;;;;11.08;3.17;;;;;;;30.54;50.28;100915.33;1801591;79;21194;-80
2021/06/27 09:00:26;;;;;;;6.53;4.20;;;;;;;30.52;50.26;100924.10;1801790;79;21182;-80
2021/06/27 09:02:58;;;;;;;8.48;3.50;;;;;;;30.42;50.77;100920.47;1801746;79;21285;-77
2021/06/27 09:05:31;;;;;;;;;;;;;;;30.36;50.21;100912.83;1804185;79;21233;-74
2021/06/27 09:08:17;;;;;;;6.95;3.60;;;;;;;30.24;50.94;100913.06;1762075;76;20632;-77
2021/06/27 09:10:50;;;;;;;7.42;3.95;;;;;;;30.17;51.20;100912.97;1755946;82;21223;-68
2021/06/27 09:13:41;;;;;;;6.47;3.47;;;;;;;30.18;51.79;100910.31;1755662;82;21721;-69
2021/06/27 09:16:23;;;;;;;11.70;3.65;;;;;;;30.24;52.33;100904.46;1703560;84;21392;-68
2021/06/27 09:19:02;;;;;;;6.28;3.35;;;;;;;30.28;53.08;100905.34;1766797;81;21329;-69
2021/06/27 09:21:34;;;;;;;7.87;3.30;;;;;;;30.30;53.67;100906.38;1764593;81;21190;-70
2021/06/27 09:24:08;;;;;;;6.15;3.08;;;;;;;30.33;53.76;100905.61;1703500;84;21212;-69
2021/06/27 09:26:41;;;;;;;7.95;3.45;;;;;;;30.30;52.31;100902.07;1720444;81;21168;-68
2021/06/27 09:29:25;;;;;;;13.80;4.17;;;;;;;30.23;52.34;100904.84;1703348;84;21381;-68
2021/06/27 09:31:59;;;;;;;;;;;;;;;30.21;53.48;100900.92;1767165;81;21384;-69
2021/06/27 09:34:31;;;;;;;9.65;3.42;;;;;;;30.16;52.27;100909.05;1749434;81;20311;-69
2021/06/27 09:37:08;;;;;;;7.25;3.58;;;;;;;30.06;52.18;100908.23;1751169;81;21440;-68
2021/06/27 09:40:02;;;;;;;7.95;3.55;;;;;;;29.97;52.50;100909.13;1735196;82;21361;-68
2021/06/27 09:42:34;;;;;;;6.58;3.30;;;;;;;29.95;52.54;100906.64;1737057;82;21333;-71
2021/06/27 09:45:09;;;;;;;7.00;3.72;;;;;;;29.90;53.16;100906.16;1717386;83;21944;-69
2021/06/27 09:47:45;;;;;;;6.97;3.65;;;;;;;29.90;53.16;100906.16;1746544;81;21211;-71
2021/06/27 09:50:30;;;;;;;4.28;3.80;;;;;;;29.96;52.75;100907.48;1741367;81;21322;-70
2021/06/27 09:53:05;;;;;;;4.95;3.47;;;;;;;29.99;52.85;100909.56;1736525;82;21354;-68
2021/06/27 09:55:38;;;;;;;6.40;3.75;;;;;;;30.01;52.31;100910.02;1742829;82;21222;-77
2021/06/27 09:58:17;;;;;;;10.72;3.65;;;;;;;30.03;53.16;100922.76;1764777;81;21428;-68
2021/06/27 10:00:51;;;;;;;5.75;3.80;;;;;;;30.03;52.58;100917.02;1749349;81;21317;-74
2021/06/27 10:03:26;;;;;;;8.35;4.12;;;;;;;30.01;52.39;100921.48;1751362;82;21799;-70
2021/06/27 10:06:09;;;;;;;6.90;4.53;;;;;;;29.96;52.61;100926.91;1775031;81;21352;-73
2021/06/27 10:08:42;;;;;;;5.40;3.92;;;;;;;29.90;52.94;100929.89;1775300;80;21407;-70
2021/06/27 10:11:20;;;;;;;8.38;4.47;;;;;;;29.94;53.77;100932.81;1751957;81;21744;-72
2021/06/27 10:13:56;;;;;;;6.45;4.92;;;;;;;29.98;54.17;100934.54;1711661;83;21222;-71
2021/06/27 10:16:31;;;;;;;8.35;4.47;;;;;;;30.03;53.32;100934.81;1746393;81;21194;-71
2021/06/27 10:19:04;;;;;;;7.47;3.87;;;;;;;30.05;53.50;100929.51;1690982;85;21211;-70
2021/06/27 10:21:37;;;;;;;8.13;4.15;;;;;;;30.09;52.73;100934.11;1741906;81;21190;-73
2021/06/27 10:24:11;;;;;;;9.48;4.75;;;;;;;30.12;52.57;100940.52;1691240;85;21338;-71
2021/06/27 10:26:43;;;;;;;7.33;4.42;;;;;;;30.07;51.84;100935.08;1741933;82;21199;-71
2021/06/27 10:29:19;;;;;;;21.05;5.00;;;;;;;29.97;52.06;100930.03;1687246;85;21287;-70
2021/06/27 10:31:54;;;;;;;18.30;4.37;;;;;;;29.97;53.13;100935.76;1742020;82;21254;-68
2021/06/27 10:34:26;;;;;;;5.35;4.00;;;;;;;29.93;51.44;100929.13;1691143;85;21369;-70
2021/06/27 10:37:20;;;;;;;8.68;5.20;;;;;;;29.87;52.47;100938.42;1747101;82;21340;-68
2021/06/27 10:40:13;;;;;;;12.63;4.45;;;;;;;29.83;52.42;100935.50;1747217;82;21367;-70
2021/06/27 10:43:01;;;;;;;8.30;4.28;;;;;;;29.72;53.27;100933.06;1746933;80;21185;-68
2021/06/27 10:45:33;;;;;;;5.80;4.30;;;;;;;29.65;52.74;100930.08;1746645;82;21232;-70
2021/06/27 10:48:25;;;;;;;9.03;5.25;;;;;;;29.62;53.36;100936.59;1746922;82;21323;-69
2021/06/27 10:50:58;;;;;;;10.58;5.30;;;;;;;29.61;53.96;100933.51;1746929;82;21338;-69
2021/06/27 10:54:16;;;;;;;6.78;4.95;;;;;;;29.59;53.70;100941.63;1746945;82;21187;-69
2021/06/27 10:57:00;;;;;;;14.20;4.97;;;;;;;29.61;53.49;100942.09;1743797;82;21362;-70
2021/06/27 10:59:51;;;;;;;5.80;5.15;;;;;;;29.64;53.98;100942.75;1747067;82;21407;-70
2021/06/27 11:02:39;;;;;;;8.83;5.10;;;;;;;29.73;54.35;100943.92;1746963;82;21393;-76
2021/06/27 11:05:39;;;;;;;12.80;5.67;;;;;;;29.84;53.16;100932.86;1746886;82;21346;-71
2021/06/27 11:08:13;;;;;;;8.03;5.35;;;;;;;29.84;52.56;100940.64;1745838;82;21841;-71
2021/06/27 11:10:47;;;;;;;16.80;5.45;;;;;;;29.78;52.34;100944.42;1730470;83;21212;-70
2021/06/27 11:13:20;;;;;;;6.22;4.53;;;;;;;29.74;52.62;100944.98;1687280;83;21189;-74
2021/06/27 11:15:57;;;;;;;9.48;4.87;;;;;;;29.73;51.22;100939.04;1730610;83;21200;-68
2021/06/27 11:18:43;;;;;;;8.48;4.87;;;;;;;29.73;51.83;100942.50;1730484;83;21283;-69
2021/06/27 11:21:21;;;;;;;14.15;5.15;;;;;;;29.76;50.91;100943.98;1730287;81;21193;-70
2021/06/27 11:24:02;;;;;;;7.20;5.00;;;;;;;29.82;51.56;100945.31;1730401;81;21695;-69
2021/06/27 11:26:53;;;;;;;9.93;4.83;;;;;;;29.89;52.52;100942.56;1730336;83;21734;-71
2021/06/27 11:29:34;;;;;;;8.15;4.85;;;;;;;29.95;52.48;100932.43;1730453;83;21232;-70
2021/06/27 11:32:15;;;;;;;10.00;4.95;;;;;;;30.03;52.51;100937.09;1733618;81;21182;-73
2021/06/27 11:34:57;;;;;;;13.20;5.67;;;;;;;30.13;51.79;100938.50;1741280;82;21341;-69
2021/06/27 11:37:40;;;;;;;12.17;6.07;;;;;;;30.23;52.10;100937.22;1746361;81;21223;-71
2021/06/27 11:40:12;;;;;;;12.00;5.83;;;;;;;30.32;51.77;100930.58;1741777;81;21345;-70
2021/06/27 11:42:47;;;;;;;8.95;5.87;;;;;;;30.33;50.78;100932.22;1741475;81;21240;-69
2021/06/27 11:45:24;;;;;;;11.55;6.03;;;;;;;30.26;51.51;100931.32;1744303;81;21371;-73
2021/06/27 11:48:00;;;;;;;13.88;6.25;;;;;;;30.18;51.75;100940.41;1744038;81;21196;-71
2021/06/27 11:50:35;;;;;;;10.55;5.60;;;;;;;30.09;51.87;100950.50;1743775;81;21193;-71
2021/06/27 11:53:12;;;;;;;14.90;4.97;;;;;;;29.97;52.63;100944.36;1741589;81;21173;-72
2021/06/27 11:56:03;;;;;;;9.23;4.70;;;;;;;29.85;51.35;100950.30;1741231;82;21379;-72
2021/06/27 11:58:24;;;;;;;8.28;4.92;;;;;;;29.78;52.01;100944.42;1740100;81;21339;-71
2021/06/27 12:00:56;;;;;;;;;;;;;;;29.71;51.93;100954.95;1671147;85;21337;-74
2021/06/27 12:03:28;;;;;;;8.70;4.65;;;;;;;29.67;51.91;100953.46;1697338;83;20599;-72
2021/06/27 12:06:03;;;;;;;9.23;4.50;;;;;;;29.65;51.61;100955.86;1698339;83;21308;-72
2021/06/27 12:08:36;;;;;;;5.83;4.12;;;;;;;29.62;50.83;100956.64;1697557;83;21311;-70
2021/06/27 12:11:09;;;;;;;14.65;4.40;;;;;;;29.58;51.80;100947.77;1700009;83;21216;-70
2021/06/27 12:13:42;;;;;;;10.08;5.58;;;;;;;29.56;52.36;100951.00;1701193;83;21392;-72
2021/06/27 12:16:15;;;;;;;13.13;6.15;;;;;;;29.60;53.18;100964.77;1730736;82;21167;-69
2021/06/27 12:18:50;;;;;;;9.98;6.12;;;;;;;29.62;53.82;100954.36;1730615;82;21786;-71